KFSM

Fort Smith Regional Airport

Fort Smith, Arkansas, USA
METAR KFSM 260353Z AUTO 00000KT 10SM CLR 24/18 A2986 RMK AO2 SLP106 T02440183
Observed Flight Rules
May-26 @ 03:53 UTC (28 minutes ago) Visual Flight Rules
Visibility Clouds
10 miles
  • Clear skies
Temperatures Readings
Current 24°C / 75°F
Dewpoint 18°C / 64°F
Humidity 69%
Altimeter 29.86" Hg
Pressure 1010.6 hPa
Elevation 140
METAR KFSM 260353Z AUTO 00000KT 10SM CLR 24/18 A2986 RMK AO2 SLP106 T02440183
Observed Flight Rules
May-26 @ 03:53 UTC
(28 minutes ago)
VFR
Clouds
  • Clear skies
Temperature Dewpoint
24°C / 75°F 18°C / 64°F
Humidity Altimeter Pressure
69% 29.86" Hg 1010.6 hPa